sensor_id;sensor_type;location;lat;lon;timestamp;P1;durP1;ratioP1;P2;durP2;ratioP2
78116;SDS011;69042;59.120;37.904;2023-04-05T00:01:31;7.45;;;3.13;;
78116;SDS011;69042;59.120;37.904;2023-04-05T00:03:58;6.88;;;3.80;;
78116;SDS011;69042;59.120;37.904;2023-04-05T00:06:25;8.45;;;3.72;;
78116;SDS011;69042;59.120;37.904;2023-04-05T00:09:00;6.10;;;3.10;;
78116;SDS011;69042;59.120;37.904;2023-04-05T00:11:29;11.40;;;3.90;;
78116;SDS011;69042;59.120;37.904;2023-04-05T00:14:00;8.73;;;4.15;;
78116;SDS011;69042;59.120;37.904;2023-04-05T00:16:27;9.10;;;3.90;;
78116;SDS011;69042;59.120;37.904;2023-04-05T00:18:56;8.63;;;4.10;;
78116;SDS011;69042;59.120;37.904;2023-04-05T00:21:23;9.15;;;3.95;;
78116;SDS011;69042;59.120;37.904;2023-04-05T00:23:55;9.30;;;3.65;;
78116;SDS011;69042;59.120;37.904;2023-04-05T00:26:23;10.48;;;3.65;;
78116;SDS011;69042;59.120;37.904;2023-04-05T00:28:53;9.40;;;3.80;;
78116;SDS011;69042;59.120;37.904;2023-04-05T00:31:19;10.25;;;3.30;;
78116;SDS011;69042;59.120;37.904;2023-04-05T00:33:45;10.85;;;3.92;;
78116;SDS011;69042;59.120;37.904;2023-04-05T00:36:12;15.73;;;3.80;;
78116;SDS011;69042;59.120;37.904;2023-04-05T00:38:43;12.15;;;4.20;;
78116;SDS011;69042;59.120;37.904;2023-04-05T00:41:11;11.70;;;4.57;;
78116;SDS011;69042;59.120;37.904;2023-04-05T00:43:38;7.07;;;3.20;;
78116;SDS011;69042;59.120;37.904;2023-04-05T00:46:05;10.55;;;4.20;;
78116;SDS011;69042;59.120;37.904;2023-04-05T00:48:32;27.45;;;4.63;;
78116;SDS011;69042;59.120;37.904;2023-04-05T00:51:02;8.13;;;4.10;;
78116;SDS011;69042;59.120;37.904;2023-04-05T00:53:29;14.90;;;3.70;;
78116;SDS011;69042;59.120;37.904;2023-04-05T00:55:56;8.50;;;4.10;;
78116;SDS011;69042;59.120;37.904;2023-04-05T00:58:23;11.05;;;4.10;;
78116;SDS011;69042;59.120;37.904;2023-04-05T01:00:53;8.80;;;4.00;;
78116;SDS011;69042;59.120;37.904;2023-04-05T01:03:28;7.65;;;3.35;;
78116;SDS011;69042;59.120;37.904;2023-04-05T01:08:51;11.20;;;3.80;;
78116;SDS011;69042;59.120;37.904;2023-04-05T01:11:19;7.30;;;3.80;;
78116;SDS011;69042;59.120;37.904;2023-04-05T01:13:46;6.80;;;3.28;;
78116;SDS011;69042;59.120;37.904;2023-04-05T01:16:13;7.35;;;3.55;;
78116;SDS011;69042;59.120;37.904;2023-04-05T01:18:39;10.45;;;3.78;;
78116;SDS011;69042;59.120;37.904;2023-04-05T01:32:22;6.88;;;3.13;;
78116;SDS011;69042;59.120;37.904;2023-04-05T01:35:12;7.30;;;3.25;;
78116;SDS011;69042;59.120;37.904;2023-04-05T01:37:41;10.13;;;3.53;;
78116;SDS011;69042;59.120;37.904;2023-04-05T01:40:13;7.35;;;3.80;;
78116;SDS011;69042;59.120;37.904;2023-04-05T01:42:41;7.03;;;3.63;;
78116;SDS011;69042;59.120;37.904;2023-04-05T01:45:08;9.52;;;4.03;;
78116;SDS011;69042;59.120;37.904;2023-04-05T01:47:34;7.10;;;3.90;;
78116;SDS011;69042;59.120;37.904;2023-04-05T01:50:00;7.13;;;3.70;;
78116;SDS011;69042;59.120;37.904;2023-04-05T01:52:30;9.02;;;3.88;;
78116;SDS011;69042;59.120;37.904;2023-04-05T01:54:56;7.43;;;3.80;;
78116;SDS011;69042;59.120;37.904;2023-04-05T01:57:23;6.93;;;3.60;;
78116;SDS011;69042;59.120;37.904;2023-04-05T01:59:49;7.07;;;3.50;;
78116;SDS011;69042;59.120;37.904;2023-04-05T02:02:15;7.25;;;3.85;;
78116;SDS011;69042;59.120;37.904;2023-04-05T02:04:41;8.52;;;3.50;;
78116;SDS011;69042;59.120;37.904;2023-04-05T02:07:08;7.55;;;4.03;;
78116;SDS011;69042;59.120;37.904;2023-04-05T02:09:35;7.63;;;3.88;;
78116;SDS011;69042;59.120;37.904;2023-04-05T02:12:01;10.00;;;3.60;;
78116;SDS011;69042;59.120;37.904;2023-04-05T02:14:28;7.07;;;3.10;;
78116;SDS011;69042;59.120;37.904;2023-04-05T02:16:54;9.88;;;3.60;;
78116;SDS011;69042;59.120;37.904;2023-04-05T02:19:22;8.07;;;3.78;;
78116;SDS011;69042;59.120;37.904;2023-04-05T02:21:48;6.80;;;3.28;;
78116;SDS011;69042;59.120;37.904;2023-04-05T02:24:15;7.20;;;3.03;;
78116;SDS011;69042;59.120;37.904;2023-04-05T02:26:41;9.85;;;3.40;;
78116;SDS011;69042;59.120;37.904;2023-04-05T02:29:07;6.80;;;3.45;;
78116;SDS011;69042;59.120;37.904;2023-04-05T02:31:34;6.47;;;3.40;;
78116;SDS011;69042;59.120;37.904;2023-04-05T02:34:01;8.23;;;4.20;;
78116;SDS011;69042;59.120;37.904;2023-04-05T02:36:33;10.50;;;3.92;;
78116;SDS011;69042;59.120;37.904;2023-04-05T02:39:01;8.93;;;3.63;;
78116;SDS011;69042;59.120;37.904;2023-04-05T02:41:28;7.75;;;3.90;;
78116;SDS011;69042;59.120;37.904;2023-04-05T02:43:55;10.20;;;4.05;;
78116;SDS011;69042;59.120;37.904;2023-04-05T02:46:21;14.80;;;3.65;;
78116;SDS011;69042;59.120;37.904;2023-04-05T02:48:48;10.43;;;3.63;;
78116;SDS011;69042;59.120;37.904;2023-04-05T02:51:16;7.00;;;3.40;;
78116;SDS011;69042;59.120;37.904;2023-04-05T02:53:42;10.48;;;3.50;;
78116;SDS011;69042;59.120;37.904;2023-04-05T02:56:12;7.53;;;3.83;;
78116;SDS011;69042;59.120;37.904;2023-04-05T02:58:42;9.63;;;3.97;;
78116;SDS011;69042;59.120;37.904;2023-04-05T03:01:09;14.23;;;3.78;;
78116;SDS011;69042;59.120;37.904;2023-04-05T03:03:35;11.82;;;3.25;;
78116;SDS011;69042;59.120;37.904;2023-04-05T03:06:03;15.73;;;3.72;;
78116;SDS011;69042;59.120;37.904;2023-04-05T03:08:42;12.98;;;4.03;;
78116;SDS011;69042;59.120;37.904;2023-04-05T03:11:11;10.60;;;4.00;;
78116;SDS011;69042;59.120;37.904;2023-04-05T03:13:40;15.43;;;3.72;;
78116;SDS011;69042;59.120;37.904;2023-04-05T03:16:11;11.60;;;3.90;;
78116;SDS011;69042;59.120;37.904;2023-04-05T03:18:40;8.48;;;4.70;;
78116;SDS011;69042;59.120;37.904;2023-04-05T03:23:39;11.40;;;4.15;;
78116;SDS011;69042;59.120;37.904;2023-04-05T03:26:05;9.05;;;3.60;;
78116;SDS011;69042;59.120;37.904;2023-04-05T03:28:36;10.02;;;3.85;;
78116;SDS011;69042;59.120;37.904;2023-04-05T03:31:05;14.52;;;4.10;;
78116;SDS011;69042;59.120;37.904;2023-04-05T03:33:32;8.00;;;3.65;;
78116;SDS011;69042;59.120;37.904;2023-04-05T03:35:58;10.25;;;3.10;;
78116;SDS011;69042;59.120;37.904;2023-04-05T03:38:24;10.10;;;3.30;;
78116;SDS011;69042;59.120;37.904;2023-04-05T03:41:12;8.80;;;3.33;;
78116;SDS011;69042;59.120;37.904;2023-04-05T03:43:40;11.50;;;3.33;;
78116;SDS011;69042;59.120;37.904;2023-04-05T03:46:06;10.13;;;4.43;;
78116;SDS011;69042;59.120;37.904;2023-04-05T03:48:32;10.40;;;3.22;;
78116;SDS011;69042;59.120;37.904;2023-04-05T03:50:58;11.60;;;3.28;;
78116;SDS011;69042;59.120;37.904;2023-04-05T03:53:24;23.75;;;3.40;;
78116;SDS011;69042;59.120;37.904;2023-04-05T03:55:54;26.92;;;4.13;;
78116;SDS011;69042;59.120;37.904;2023-04-05T03:58:35;14.70;;;3.65;;
78116;SDS011;69042;59.120;37.904;2023-04-05T04:01:02;9.60;;;3.85;;
78116;SDS011;69042;59.120;37.904;2023-04-05T04:03:29;8.73;;;3.20;;
78116;SDS011;69042;59.120;37.904;2023-04-05T04:05:56;10.18;;;3.55;;
78116;SDS011;69042;59.120;37.904;2023-04-05T04:08:22;17.00;;;3.38;;
78116;SDS011;69042;59.120;37.904;2023-04-05T04:10:48;7.88;;;3.08;;
78116;SDS011;69042;59.120;37.904;2023-04-05T04:13:22;9.13;;;2.50;;
78116;SDS011;69042;59.120;37.904;2023-04-05T04:16:02;6.57;;;2.22;;
78116;SDS011;69042;59.120;37.904;2023-04-05T04:18:51;5.80;;;3.30;;
78116;SDS011;69042;59.120;37.904;2023-04-05T04:21:42;5.07;;;2.40;;
78116;SDS011;69042;59.120;37.904;2023-04-05T04:24:29;5.13;;;2.55;;
78116;SDS011;69042;59.120;37.904;2023-04-05T04:27:15;6.18;;;3.00;;
78116;SDS011;69042;59.120;37.904;2023-04-05T04:30:14;6.55;;;3.08;;
78116;SDS011;69042;59.120;37.904;2023-04-05T04:33:01;5.05;;;2.53;;
78116;SDS011;69042;59.120;37.904;2023-04-05T04:35:35;9.32;;;4.75;;
78116;SDS011;69042;59.120;37.904;2023-04-05T04:38:23;7.35;;;3.00;;
78116;SDS011;69042;59.120;37.904;2023-04-05T04:41:09;6.20;;;3.13;;
78116;SDS011;69042;59.120;37.904;2023-04-05T04:43:48;6.45;;;2.88;;
78116;SDS011;69042;59.120;37.904;2023-04-05T04:46:38;15.82;;;3.80;;
78116;SDS011;69042;59.120;37.904;2023-04-05T04:49:18;5.45;;;2.90;;
78116;SDS011;69042;59.120;37.904;2023-04-05T04:51:47;6.32;;;2.90;;
78116;SDS011;69042;59.120;37.904;2023-04-05T04:54:13;6.78;;;3.28;;
78116;SDS011;69042;59.120;37.904;2023-04-05T04:56:45;5.78;;;3.08;;
78116;SDS011;69042;59.120;37.904;2023-04-05T04:59:12;5.68;;;2.95;;
78116;SDS011;69042;59.120;37.904;2023-04-05T05:01:38;6.85;;;2.70;;
78116;SDS011;69042;59.120;37.904;2023-04-05T05:04:07;5.57;;;2.47;;
78116;SDS011;69042;59.120;37.904;2023-04-05T05:06:35;7.70;;;2.92;;
78116;SDS011;69042;59.120;37.904;2023-04-05T05:09:02;6.10;;;2.90;;
78116;SDS011;69042;59.120;37.904;2023-04-05T05:11:31;5.90;;;3.22;;
78116;SDS011;69042;59.120;37.904;2023-04-05T05:13:58;6.82;;;3.35;;
78116;SDS011;69042;59.120;37.904;2023-04-05T05:16:26;6.50;;;3.30;;
78116;SDS011;69042;59.120;37.904;2023-04-05T05:18:53;6.88;;;3.45;;
78116;SDS011;69042;59.120;37.904;2023-04-05T05:21:22;6.85;;;3.58;;
78116;SDS011;69042;59.120;37.904;2023-04-05T05:23:54;6.82;;;4.32;;
78116;SDS011;69042;59.120;37.904;2023-04-05T05:26:20;7.50;;;3.40;;
78116;SDS011;69042;59.120;37.904;2023-04-05T05:41:56;7.47;;;4.45;;
78116;SDS011;69042;59.120;37.904;2023-04-05T05:44:22;7.38;;;4.10;;
78116;SDS011;69042;59.120;37.904;2023-04-05T05:46:48;7.05;;;4.00;;
78116;SDS011;69042;59.120;37.904;2023-04-05T05:49:15;6.10;;;3.70;;
78116;SDS011;69042;59.120;37.904;2023-04-05T05:51:41;6.80;;;3.95;;
78116;SDS011;69042;59.120;37.904;2023-04-05T05:54:07;7.00;;;4.13;;
78116;SDS011;69042;59.120;37.904;2023-04-05T05:56:33;7.97;;;4.43;;
78116;SDS011;69042;59.120;37.904;2023-04-05T05:58:59;10.95;;;4.68;;
78116;SDS011;69042;59.120;37.904;2023-04-05T06:01:26;8.50;;;4.65;;
78116;SDS011;69042;59.120;37.904;2023-04-05T06:03:53;8.25;;;5.00;;
78116;SDS011;69042;59.120;37.904;2023-04-05T06:06:19;7.75;;;4.57;;
78116;SDS011;69042;59.120;37.904;2023-04-05T06:08:46;7.82;;;5.00;;
78116;SDS011;69042;59.120;37.904;2023-04-05T06:11:16;7.63;;;4.93;;
78116;SDS011;69042;59.120;37.904;2023-04-05T06:13:43;8.18;;;4.80;;
78116;SDS011;69042;59.120;37.904;2023-04-05T06:16:09;9.48;;;4.70;;
78116;SDS011;69042;59.120;37.904;2023-04-05T06:18:35;7.13;;;4.40;;
78116;SDS011;69042;59.120;37.904;2023-04-05T06:21:01;6.10;;;3.47;;
78116;SDS011;69042;59.120;37.904;2023-04-05T06:23:27;5.45;;;2.95;;
78116;SDS011;69042;59.120;37.904;2023-04-05T06:25:53;6.75;;;3.42;;
78116;SDS011;69042;59.120;37.904;2023-04-05T06:28:21;6.45;;;3.50;;
78116;SDS011;69042;59.120;37.904;2023-04-05T06:30:47;5.82;;;3.22;;
78116;SDS011;69042;59.120;37.904;2023-04-05T06:33:19;5.97;;;3.30;;
78116;SDS011;69042;59.120;37.904;2023-04-05T06:35:45;6.63;;;3.65;;
78116;SDS011;69042;59.120;37.904;2023-04-05T06:38:11;7.32;;;3.17;;
78116;SDS011;69042;59.120;37.904;2023-04-05T06:40:37;9.73;;;3.25;;
78116;SDS011;69042;59.120;37.904;2023-04-05T06:43:03;6.65;;;2.70;;
78116;SDS011;69042;59.120;37.904;2023-04-05T06:45:31;5.20;;;3.05;;
78116;SDS011;69042;59.120;37.904;2023-04-05T06:47:58;6.18;;;3.45;;
78116;SDS011;69042;59.120;37.904;2023-04-05T06:50:24;5.40;;;3.00;;
78116;SDS011;69042;59.120;37.904;2023-04-05T06:52:50;6.50;;;3.67;;
78116;SDS011;69042;59.120;37.904;2023-04-05T06:55:17;8.20;;;3.35;;
78116;SDS011;69042;59.120;37.904;2023-04-05T06:57:49;8.35;;;4.63;;
78116;SDS011;69042;59.120;37.904;2023-04-05T07:00:16;8.10;;;4.88;;
78116;SDS011;69042;59.120;37.904;2023-04-05T07:02:43;9.07;;;4.72;;
78116;SDS011;69042;59.120;37.904;2023-04-05T07:05:09;9.60;;;4.10;;
78116;SDS011;69042;59.120;37.904;2023-04-05T07:07:39;7.55;;;4.90;;
78116;SDS011;69042;59.120;37.904;2023-04-05T07:10:10;7.43;;;3.90;;
78116;SDS011;69042;59.120;37.904;2023-04-05T07:12:37;9.05;;;5.05;;
78116;SDS011;69042;59.120;37.904;2023-04-05T07:15:04;8.60;;;4.90;;
78116;SDS011;69042;59.120;37.904;2023-04-05T07:17:31;9.50;;;5.68;;
78116;SDS011;69042;59.120;37.904;2023-04-05T07:19:58;8.40;;;4.93;;
78116;SDS011;69042;59.120;37.904;2023-04-05T07:22:24;9.13;;;4.80;;
78116;SDS011;69042;59.120;37.904;2023-04-05T07:24:50;8.60;;;5.38;;
78116;SDS011;69042;59.120;37.904;2023-04-05T07:27:17;8.32;;;4.82;;
78116;SDS011;69042;59.120;37.904;2023-04-05T07:29:44;10.80;;;5.55;;
78116;SDS011;69042;59.120;37.904;2023-04-05T07:32:10;10.73;;;5.13;;
78116;SDS011;69042;59.120;37.904;2023-04-05T07:34:36;10.35;;;5.70;;
78116;SDS011;69042;59.120;37.904;2023-04-05T07:37:04;7.88;;;4.68;;
78116;SDS011;69042;59.120;37.904;2023-04-05T07:39:31;7.45;;;4.70;;
78116;SDS011;69042;59.120;37.904;2023-04-05T07:41:58;9.20;;;4.47;;
78116;SDS011;69042;59.120;37.904;2023-04-05T07:44:24;8.48;;;4.55;;
78116;SDS011;69042;59.120;37.904;2023-04-05T07:46:51;6.68;;;3.90;;
78116;SDS011;69042;59.120;37.904;2023-04-05T07:49:22;6.90;;;4.10;;
78116;SDS011;69042;59.120;37.904;2023-04-05T07:51:49;7.40;;;3.83;;
78116;SDS011;69042;59.120;37.904;2023-04-05T07:54:19;6.72;;;3.53;;
78116;SDS011;69042;59.120;37.904;2023-04-05T07:56:45;6.75;;;3.55;;
78116;SDS011;69042;59.120;37.904;2023-04-05T07:59:12;6.28;;;3.10;;
78116;SDS011;69042;59.120;37.904;2023-04-05T08:01:38;7.10;;;3.80;;
78116;SDS011;69042;59.120;37.904;2023-04-05T08:04:04;5.97;;;3.75;;
78116;SDS011;69042;59.120;37.904;2023-04-05T08:06:30;6.65;;;3.58;;
78116;SDS011;69042;59.120;37.904;2023-04-05T08:08:57;8.05;;;3.90;;
78116;SDS011;69042;59.120;37.904;2023-04-05T08:11:23;6.20;;;3.45;;
78116;SDS011;69042;59.120;37.904;2023-04-05T08:13:50;6.93;;;3.90;;
78116;SDS011;69042;59.120;37.904;2023-04-05T08:16:19;8.63;;;3.85;;
78116;SDS011;69042;59.120;37.904;2023-04-05T08:18:45;8.88;;;4.32;;
78116;SDS011;69042;59.120;37.904;2023-04-05T08:21:11;8.73;;;4.78;;
78116;SDS011;69042;59.120;37.904;2023-04-05T08:23:37;6.70;;;3.90;;
78116;SDS011;69042;59.120;37.904;2023-04-05T08:26:04;8.35;;;3.90;;
78116;SDS011;69042;59.120;37.904;2023-04-05T08:28:35;8.07;;;4.28;;
78116;SDS011;69042;59.120;37.904;2023-04-05T08:31:01;10.13;;;3.83;;
78116;SDS011;69042;59.120;37.904;2023-04-05T08:33:27;6.70;;;3.75;;
78116;SDS011;69042;59.120;37.904;2023-04-05T08:35:56;8.65;;;3.40;;
78116;SDS011;69042;59.120;37.904;2023-04-05T08:38:22;6.70;;;3.70;;
78116;SDS011;69042;59.120;37.904;2023-04-05T08:40:49;8.77;;;4.13;;
78116;SDS011;69042;59.120;37.904;2023-04-05T08:46:22;6.93;;;3.50;;
78116;SDS011;69042;59.120;37.904;2023-04-05T08:48:49;9.07;;;3.30;;
78116;SDS011;69042;59.120;37.904;2023-04-05T08:51:19;7.03;;;3.60;;
78116;SDS011;69042;59.120;37.904;2023-04-05T08:53:46;6.60;;;4.00;;
78116;SDS011;69042;59.120;37.904;2023-04-05T08:56:26;7.50;;;4.03;;
78116;SDS011;69042;59.120;37.904;2023-04-05T08:59:16;8.07;;;4.10;;
78116;SDS011;69042;59.120;37.904;2023-04-05T09:01:44;7.32;;;3.97;;
78116;SDS011;69042;59.120;37.904;2023-04-05T09:04:20;5.97;;;3.45;;
78116;SDS011;69042;59.120;37.904;2023-04-05T09:06:49;7.05;;;3.85;;
78116;SDS011;69042;59.120;37.904;2023-04-05T09:09:17;8.65;;;4.10;;
78116;SDS011;69042;59.120;37.904;2023-04-05T09:11:45;7.63;;;3.70;;
78116;SDS011;69042;59.120;37.904;2023-04-05T09:14:11;5.85;;;3.38;;
78116;SDS011;69042;59.120;37.904;2023-04-05T09:16:38;6.85;;;3.70;;
78116;SDS011;69042;59.120;37.904;2023-04-05T09:19:06;6.45;;;3.63;;
78116;SDS011;69042;59.120;37.904;2023-04-05T09:27:10;6.57;;;3.90;;
78116;SDS011;69042;59.120;37.904;2023-04-05T09:29:38;8.45;;;3.90;;
78116;SDS011;69042;59.120;37.904;2023-04-05T09:32:08;7.53;;;4.13;;
78116;SDS011;69042;59.120;37.904;2023-04-05T09:34:36;7.38;;;4.07;;
78116;SDS011;69042;59.120;37.904;2023-04-05T09:37:16;11.88;;;4.30;;
78116;SDS011;69042;59.120;37.904;2023-04-05T09:39:45;7.18;;;3.70;;
78116;SDS011;69042;59.120;37.904;2023-04-05T09:42:15;7.20;;;3.92;;
78116;SDS011;69042;59.120;37.904;2023-04-05T09:47:27;7.60;;;3.70;;
78116;SDS011;69042;59.120;37.904;2023-04-05T09:50:16;6.13;;;3.78;;
78116;SDS011;69042;59.120;37.904;2023-04-05T09:52:44;7.35;;;3.63;;
78116;SDS011;69042;59.120;37.904;2023-04-05T09:55:11;9.25;;;3.33;;
78116;SDS011;69042;59.120;37.904;2023-04-05T09:57:39;7.72;;;3.83;;
78116;SDS011;69042;59.120;37.904;2023-04-05T10:00:18;7.68;;;3.70;;
78116;SDS011;69042;59.120;37.904;2023-04-05T10:02:45;7.47;;;3.90;;
78116;SDS011;69042;59.120;37.904;2023-04-05T10:05:17;6.13;;;3.65;;
78116;SDS011;69042;59.120;37.904;2023-04-05T10:07:43;7.75;;;3.88;;
78116;SDS011;69042;59.120;37.904;2023-04-05T10:10:10;11.32;;;4.18;;
78116;SDS011;69042;59.120;37.904;2023-04-05T10:12:38;7.55;;;4.10;;
78116;SDS011;69042;59.120;37.904;2023-04-05T10:15:10;7.85;;;4.00;;
78116;SDS011;69042;59.120;37.904;2023-04-05T10:20:23;7.15;;;3.95;;
78116;SDS011;69042;59.120;37.904;2023-04-05T10:22:58;7.13;;;3.80;;
78116;SDS011;69042;59.120;37.904;2023-04-05T10:28:30;6.80;;;3.83;;
78116;SDS011;69042;59.120;37.904;2023-04-05T10:33:49;6.90;;;3.33;;
78116;SDS011;69042;59.120;37.904;2023-04-05T10:36:49;7.40;;;3.90;;
78116;SDS011;69042;59.120;37.904;2023-04-05T10:39:28;8.52;;;4.13;;
78116;SDS011;69042;59.120;37.904;2023-04-05T10:42:06;9.20;;;4.60;;
78116;SDS011;69042;59.120;37.904;2023-04-05T10:44:51;8.95;;;5.57;;
78116;SDS011;69042;59.120;37.904;2023-04-05T10:47:25;9.40;;;5.00;;
78116;SDS011;69042;59.120;37.904;2023-04-05T10:49:55;11.10;;;5.18;;
78116;SDS011;69042;59.120;37.904;2023-04-05T10:52:24;9.05;;;4.60;;
78116;SDS011;69042;59.120;37.904;2023-04-05T10:54:52;6.85;;;4.40;;
78116;SDS011;69042;59.120;37.904;2023-04-05T10:57:21;8.13;;;4.80;;
78116;SDS011;69042;59.120;37.904;2023-04-05T10:59:48;7.57;;;3.80;;
78116;SDS011;69042;59.120;37.904;2023-04-05T11:02:15;8.10;;;4.25;;
78116;SDS011;69042;59.120;37.904;2023-04-05T11:04:43;7.57;;;4.00;;
78116;SDS011;69042;59.120;37.904;2023-04-05T11:09:55;11.32;;;5.00;;
78116;SDS011;69042;59.120;37.904;2023-04-05T11:20:46;7.97;;;4.18;;
78116;SDS011;69042;59.120;37.904;2023-04-05T11:23:14;7.57;;;4.20;;
78116;SDS011;69042;59.120;37.904;2023-04-05T11:25:45;10.13;;;4.40;;
78116;SDS011;69042;59.120;37.904;2023-04-05T11:28:34;12.30;;;4.20;;
78116;SDS011;69042;59.120;37.904;2023-04-05T11:31:13;14.68;;;4.45;;
78116;SDS011;69042;59.120;37.904;2023-04-05T11:36:12;6.25;;;3.15;;
78116;SDS011;69042;59.120;37.904;2023-04-05T11:38:43;7.05;;;3.40;;
78116;SDS011;69042;59.120;37.904;2023-04-05T11:41:14;9.23;;;4.07;;
78116;SDS011;69042;59.120;37.904;2023-04-05T11:43:46;11.65;;;4.63;;
78116;SDS011;69042;59.120;37.904;2023-04-05T11:46:12;9.48;;;4.45;;
78116;SDS011;69042;59.120;37.904;2023-04-05T11:48:49;9.05;;;4.43;;
78116;SDS011;69042;59.120;37.904;2023-04-05T11:51:17;10.85;;;4.43;;
78116;SDS011;69042;59.120;37.904;2023-04-05T11:53:48;12.70;;;5.13;;
78116;SDS011;69042;59.120;37.904;2023-04-05T11:56:15;10.70;;;4.60;;
78116;SDS011;69042;59.120;37.904;2023-04-05T11:58:41;10.43;;;3.90;;
78116;SDS011;69042;59.120;37.904;2023-04-05T12:01:07;7.05;;;3.70;;
78116;SDS011;69042;59.120;37.904;2023-04-05T12:03:37;7.43;;;3.85;;
78116;SDS011;69042;59.120;37.904;2023-04-05T12:06:06;13.50;;;3.72;;
78116;SDS011;69042;59.120;37.904;2023-04-05T12:08:44;6.53;;;3.63;;
78116;SDS011;69042;59.120;37.904;2023-04-05T12:11:15;5.63;;;3.03;;
78116;SDS011;69042;59.120;37.904;2023-04-05T12:13:51;5.72;;;3.15;;
78116;SDS011;69042;59.120;37.904;2023-04-05T12:16:19;5.65;;;3.17;;
78116;SDS011;69042;59.120;37.904;2023-04-05T12:18:51;6.20;;;2.97;;
78116;SDS011;69042;59.120;37.904;2023-04-05T12:21:19;8.95;;;3.05;;
78116;SDS011;69042;59.120;37.904;2023-04-05T12:23:45;8.63;;;3.10;;
78116;SDS011;69042;59.120;37.904;2023-04-05T12:26:12;7.28;;;2.97;;
78116;SDS011;69042;59.120;37.904;2023-04-05T12:28:49;8.48;;;3.78;;
78116;SDS011;69042;59.120;37.904;2023-04-05T12:31:16;8.35;;;3.92;;
78116;SDS011;69042;59.120;37.904;2023-04-05T12:33:43;13.98;;;3.78;;
78116;SDS011;69042;59.120;37.904;2023-04-05T12:36:09;9.30;;;4.30;;
78116;SDS011;69042;59.120;37.904;2023-04-05T12:38:36;8.07;;;3.75;;
78116;SDS011;69042;59.120;37.904;2023-04-05T12:41:03;9.00;;;3.80;;
78116;SDS011;69042;59.120;37.904;2023-04-05T12:43:39;9.23;;;4.30;;
78116;SDS011;69042;59.120;37.904;2023-04-05T12:46:08;7.68;;;3.80;;
78116;SDS011;69042;59.120;37.904;2023-04-05T12:48:35;8.55;;;4.05;;
78116;SDS011;69042;59.120;37.904;2023-04-05T12:51:03;10.65;;;4.78;;
78116;SDS011;69042;59.120;37.904;2023-04-05T12:53:43;7.53;;;4.10;;
78116;SDS011;69042;59.120;37.904;2023-04-05T12:58:40;6.60;;;3.65;;
78116;SDS011;69042;59.120;37.904;2023-04-05T13:01:07;10.02;;;4.20;;
78116;SDS011;69042;59.120;37.904;2023-04-05T13:03:35;6.60;;;3.65;;
78116;SDS011;69042;59.120;37.904;2023-04-05T13:06:06;7.03;;;3.70;;
78116;SDS011;69042;59.120;37.904;2023-04-05T13:08:32;9.02;;;4.45;;
78116;SDS011;69042;59.120;37.904;2023-04-05T13:10:59;8.30;;;4.07;;
78116;SDS011;69042;59.120;37.904;2023-04-05T13:13:26;9.85;;;4.22;;
78116;SDS011;69042;59.120;37.904;2023-04-05T13:15:52;9.90;;;4.13;;
78116;SDS011;69042;59.120;37.904;2023-04-05T13:18:19;7.85;;;4.25;;
78116;SDS011;69042;59.120;37.904;2023-04-05T13:20:45;9.77;;;4.57;;
78116;SDS011;69042;59.120;37.904;2023-04-05T13:23:11;10.73;;;4.20;;
78116;SDS011;69042;59.120;37.904;2023-04-05T13:25:38;9.23;;;3.95;;
78116;SDS011;69042;59.120;37.904;2023-04-05T13:28:05;14.30;;;4.65;;
78116;SDS011;69042;59.120;37.904;2023-04-05T13:30:31;12.88;;;4.93;;
78116;SDS011;69042;59.120;37.904;2023-04-05T13:32:58;20.83;;;4.90;;
78116;SDS011;69042;59.120;37.904;2023-04-05T13:35:24;15.13;;;4.28;;
78116;SDS011;69042;59.120;37.904;2023-04-05T13:37:51;9.02;;;4.20;;
78116;SDS011;69042;59.120;37.904;2023-04-05T13:40:17;8.50;;;4.32;;
78116;SDS011;69042;59.120;37.904;2023-04-05T13:42:44;10.65;;;4.60;;
78116;SDS011;69042;59.120;37.904;2023-04-05T13:45:11;13.48;;;5.18;;
78116;SDS011;69042;59.120;37.904;2023-04-05T13:47:37;6.15;;;3.63;;
78116;SDS011;69042;59.120;37.904;2023-04-05T13:50:04;6.93;;;3.80;;
78116;SDS011;69042;59.120;37.904;2023-04-05T13:52:31;13.57;;;3.88;;
78116;SDS011;69042;59.120;37.904;2023-04-05T13:54:58;9.65;;;4.20;;
78116;SDS011;69042;59.120;37.904;2023-04-05T13:57:25;7.78;;;3.75;;
78116;SDS011;69042;59.120;37.904;2023-04-05T13:59:51;8.60;;;4.40;;
78116;SDS011;69042;59.120;37.904;2023-04-05T14:02:17;7.45;;;3.83;;
78116;SDS011;69042;59.120;37.904;2023-04-05T14:04:51;8.35;;;4.20;;
78116;SDS011;69042;59.120;37.904;2023-04-05T14:07:19;8.80;;;3.72;;
78116;SDS011;69042;59.120;37.904;2023-04-05T14:09:51;13.30;;;3.85;;
78116;SDS011;69042;59.120;37.904;2023-04-05T14:12:18;10.35;;;4.07;;
78116;SDS011;69042;59.120;37.904;2023-04-05T14:14:44;7.55;;;3.70;;
78116;SDS011;69042;59.120;37.904;2023-04-05T14:17:10;8.63;;;4.07;;
78116;SDS011;69042;59.120;37.904;2023-04-05T14:19:39;8.23;;;4.68;;
78116;SDS011;69042;59.120;37.904;2023-04-05T14:22:05;11.52;;;4.07;;
78116;SDS011;69042;59.120;37.904;2023-04-05T14:24:32;17.10;;;4.40;;
78116;SDS011;69042;59.120;37.904;2023-04-05T14:27:01;10.00;;;3.70;;
78116;SDS011;69042;59.120;37.904;2023-04-05T14:29:27;6.85;;;3.60;;
78116;SDS011;69042;59.120;37.904;2023-04-05T14:31:55;7.63;;;3.40;;
78116;SDS011;69042;59.120;37.904;2023-04-05T14:34:21;8.23;;;3.72;;
78116;SDS011;69042;59.120;37.904;2023-04-05T14:36:48;8.10;;;4.50;;
78116;SDS011;69042;59.120;37.904;2023-04-05T14:39:14;10.60;;;3.97;;
78116;SDS011;69042;59.120;37.904;2023-04-05T14:41:40;16.10;;;6.55;;
78116;SDS011;69042;59.120;37.904;2023-04-05T14:44:07;6.65;;;3.85;;
78116;SDS011;69042;59.120;37.904;2023-04-05T14:46:33;9.13;;;4.43;;
78116;SDS011;69042;59.120;37.904;2023-04-05T14:49:00;7.07;;;3.70;;
78116;SDS011;69042;59.120;37.904;2023-04-05T14:51:26;8.88;;;4.22;;
78116;SDS011;69042;59.120;37.904;2023-04-05T14:53:53;8.75;;;3.97;;
78116;SDS011;69042;59.120;37.904;2023-04-05T14:56:19;10.45;;;4.40;;
78116;SDS011;69042;59.120;37.904;2023-04-05T14:58:46;12.93;;;4.57;;
78116;SDS011;69042;59.120;37.904;2023-04-05T15:01:12;8.10;;;4.15;;
78116;SDS011;69042;59.120;37.904;2023-04-05T15:03:39;9.88;;;3.90;;
78116;SDS011;69042;59.120;37.904;2023-04-05T15:06:05;18.67;;;4.78;;
78116;SDS011;69042;59.120;37.904;2023-04-05T15:08:32;9.48;;;4.15;;
78116;SDS011;69042;59.120;37.904;2023-04-05T15:10:58;9.77;;;4.38;;
78116;SDS011;69042;59.120;37.904;2023-04-05T15:13:25;10.35;;;4.38;;
78116;SDS011;69042;59.120;37.904;2023-04-05T15:15:57;10.45;;;5.32;;
78116;SDS011;69042;59.120;37.904;2023-04-05T15:18:23;10.05;;;4.63;;
78116;SDS011;69042;59.120;37.904;2023-04-05T15:20:50;9.93;;;4.72;;
78116;SDS011;69042;59.120;37.904;2023-04-05T15:23:16;25.83;;;5.95;;
78116;SDS011;69042;59.120;37.904;2023-04-05T15:25:43;9.15;;;4.15;;
78116;SDS011;69042;59.120;37.904;2023-04-05T15:28:09;11.82;;;4.20;;
78116;SDS011;69042;59.120;37.904;2023-04-05T15:30:40;8.32;;;4.18;;
78116;SDS011;69042;59.120;37.904;2023-04-05T15:33:07;10.77;;;4.45;;
78116;SDS011;69042;59.120;37.904;2023-04-05T15:35:37;9.25;;;4.53;;
78116;SDS011;69042;59.120;37.904;2023-04-05T15:38:03;12.30;;;4.90;;
78116;SDS011;69042;59.120;37.904;2023-04-05T15:40:29;7.97;;;4.03;;
78116;SDS011;69042;59.120;37.904;2023-04-05T15:43:01;9.68;;;4.75;;
78116;SDS011;69042;59.120;37.904;2023-04-05T15:45:27;9.77;;;4.25;;
78116;SDS011;69042;59.120;37.904;2023-04-05T15:47:54;13.15;;;5.22;;